Time;durP1;ratioP1;P1;durP2;ratioP2;P2;SDS_P1;SDS_P2;PMS_P1;PMS_P2;Temp;Humidity;BMP_temperature;BMP_pressure;BME280_temperature;BME280_humidity;BME280_pressure;Samples;Min_cycle;Max_cycle;Signal;HPM_P1;HPM_P2
2021/12/11 00:01:43;;;;;;;20.10;10.23;;;;;;;;;;5011167;28;20270;-79
2021/12/11 00:04:13;;;;;;;19.63;10.00;;;;;;;;;;5012851;28;20256;-78
2021/12/11 00:06:42;;;;;;;20.17;9.87;;;;;;;;;;4994858;28;20216;-77
2021/12/11 00:09:14;;;;;;;25.37;10.80;;;;;;;;;;4996715;28;20671;-79
2021/12/11 00:11:44;;;;;;;24.73;11.30;;;;;;;;;;4994354;28;20746;-78
2021/12/11 00:14:14;;;;;;;23.97;10.13;;;;;;;;;;5001789;28;20290;-77
2021/12/11 00:16:41;;;;;;;23.63;9.93;;;;;;;;;;4992060;28;20230;-76
2021/12/11 00:19:11;;;;;;;25.07;10.17;;;;;;;;;;4987299;28;20303;-78
2021/12/11 00:21:39;;;;;;;21.07;9.60;;;;;;;;;;5009619;28;20276;-78
2021/12/11 00:24:08;;;;;;;21.70;10.07;;;;;;;;;;5011583;28;20624;-79
2021/12/11 00:26:37;;;;;;;20.17;9.90;;;;;;;;;;5008092;28;20263;-78
2021/12/11 00:29:06;;;;;;;21.80;10.53;;;;;;;;;;5009119;28;20679;-79
2021/12/11 00:31:36;;;;;;;22.47;9.90;;;;;;;;;;5012528;28;20247;-77
2021/12/11 00:34:04;;;;;;;23.70;10.17;;;;;;;;;;5007849;28;20287;-78
2021/12/11 00:36:32;;;;;;;22.60;9.40;;;;;;;;;;5012178;28;20569;-77
2021/12/11 00:39:03;;;;;;;24.63;11.20;;;;;;;;;;5011354;28;20228;-79
2021/12/11 00:41:33;;;;;;;21.27;9.47;;;;;;;;;;5007438;28;20682;-80
2021/12/11 00:44:01;;;;;;;22.77;9.73;;;;;;;;;;5010684;28;20303;-80
2021/12/11 00:46:30;;;;;;;19.60;9.97;;;;;;;;;;5009124;28;20697;-78
2021/12/11 00:49:07;;;;;;;20.67;9.90;;;;;;;;;;5009684;28;20766;-80
2021/12/11 00:51:35;;;;;;;20.37;10.17;;;;;;;;;;5008470;28;20236;-78
2021/12/11 00:54:03;;;;;;;22.43;9.97;;;;;;;;;;5008746;28;21038;-79
2021/12/11 00:56:31;;;;;;;22.37;9.83;;;;;;;;;;5010825;28;20310;-80
2021/12/11 00:59:00;;;;;;;19.83;9.17;;;;;;;;;;5006536;28;20227;-78
2021/12/11 01:01:29;;;;;;;23.70;10.07;;;;;;;;;;5011635;28;20211;-79
2021/12/11 01:03:59;;;;;;;17.80;9.30;;;;;;;;;;5010130;28;20794;-78
2021/12/11 01:06:29;;;;;;;22.60;9.53;;;;;;;;;;5011455;28;20339;-80
2021/12/11 01:08:59;;;;;;;24.57;10.37;;;;;;;;;;5006309;28;20741;-80
2021/12/11 01:11:29;;;;;;;21.70;9.27;;;;;;;;;;5011955;28;20243;-79
2021/12/11 01:14:07;;;;;;;27.23;9.27;;;;;;;;;;5009776;28;20227;-80
2021/12/11 01:16:35;;;;;;;20.77;8.70;;;;;;;;;;5010105;28;20212;-80
2021/12/11 01:19:04;;;;;;;19.80;8.57;;;;;;;;;;5013909;28;20247;-78
2021/12/11 01:21:44;;;;;;;20.67;9.60;;;;;;;;;;5020555;28;20263;-78
2021/12/11 01:24:16;;;;;;;21.03;9.43;;;;;;;;;;5013527;28;20228;-78
2021/12/11 01:26:48;;;;;;;18.70;8.87;;;;;;;;;;5011120;28;20200;-79
2021/12/11 01:29:17;;;;;;;16.40;8.20;;;;;;;;;;5011860;28;20279;-79
2021/12/11 01:31:45;;;;;;;23.23;9.37;;;;;;;;;;5009535;28;20642;-78
2021/12/11 01:34:12;;;;;;;18.23;8.70;;;;;;;;;;5010568;28;20696;-78
2021/12/11 01:36:41;;;;;;;16.47;8.30;;;;;;;;;;5009006;28;20231;-78
2021/12/11 01:39:11;;;;;;;22.17;8.80;;;;;;;;;;5009728;28;20265;-79
2021/12/11 01:41:39;;;;;;;24.23;9.07;;;;;;;;;;5009828;28;20226;-79
2021/12/11 01:44:08;;;;;;;18.33;8.10;;;;;;;;;;5011740;28;20772;-78
2021/12/11 01:46:36;;;;;;;18.00;8.40;;;;;;;;;;5014844;28;20294;-79
2021/12/11 01:49:06;;;;;;;17.70;8.10;;;;;;;;;;5009962;28;20262;-78
2021/12/11 01:51:36;;;;;;;17.27;8.67;;;;;;;;;;5011265;28;20243;-78
2021/12/11 01:54:06;;;;;;;19.20;9.20;;;;;;;;;;5014592;28;20330;-79
2021/12/11 01:56:34;;;;;;;16.33;8.03;;;;;;;;;;5016732;28;20196;-78
2021/12/11 01:59:05;;;;;;;17.40;7.60;;;;;;;;;;5012987;28;20307;-80
2021/12/11 02:01:34;;;;;;;16.73;8.13;;;;;;;;;;5007924;28;20208;-78
2021/12/11 02:04:02;;;;;;;16.40;7.77;;;;;;;;;;5010001;28;20250;-78
2021/12/11 02:06:29;;;;;;;13.93;6.60;;;;;;;;;;5013950;28;20209;-78
2021/12/11 02:08:57;;;;;;;18.00;8.30;;;;;;;;;;5012219;28;20274;-78
2021/12/11 02:11:29;;;;;;;14.63;6.73;;;;;;;;;;5011696;28;20200;-79
2021/12/11 02:13:58;;;;;;;16.13;7.03;;;;;;;;;;5008336;28;20217;-80
2021/12/11 02:16:26;;;;;;;13.40;7.30;;;;;;;;;;5012348;28;20223;-77
2021/12/11 02:18:59;;;;;;;17.87;7.07;;;;;;;;;;5009117;28;20235;-79
2021/12/11 02:21:28;;;;;;;14.93;7.30;;;;;;;;;;5010653;28;20220;-81
2021/12/11 02:23:58;;;;;;;14.30;5.90;;;;;;;;;;5012943;28;20256;-80
2021/12/11 02:26:27;;;;;;;17.47;6.50;;;;;;;;;;5009367;28;20212;-79
2021/12/11 02:28:56;;;;;;;17.43;7.07;;;;;;;;;;5001461;28;20228;-78
2021/12/11 02:31:27;;;;;;;12.87;6.50;;;;;;;;;;5009552;28;20200;-77
2021/12/11 02:33:56;;;;;;;15.83;7.17;;;;;;;;;;5008748;28;20814;-77
2021/12/11 02:36:25;;;;;;;16.30;6.73;;;;;;;;;;5010699;28;20251;-78
2021/12/11 02:38:55;;;;;;;15.70;6.47;;;;;;;;;;5011547;28;20591;-78
2021/12/11 02:41:26;;;;;;;15.60;7.33;;;;;;;;;;5010775;28;20323;-79
2021/12/11 02:43:57;;;;;;;14.07;6.90;;;;;;;;;;5007504;28;20281;-78
2021/12/11 02:46:27;;;;;;;23.07;7.17;;;;;;;;;;5012693;28;20241;-79
2021/12/11 02:48:56;;;;;;;16.63;7.70;;;;;;;;;;5012020;28;20223;-78
2021/12/11 02:51:28;;;;;;;15.67;6.80;;;;;;;;;;5009652;28;20235;-77
2021/12/11 02:53:56;;;;;;;18.17;7.17;;;;;;;;;;5008076;28;20570;-78
2021/12/11 02:56:27;;;;;;;17.90;7.17;;;;;;;;;;5013593;28;20647;-80
2021/12/11 02:58:57;;;;;;;20.37;7.43;;;;;;;;;;5011312;28;20224;-78
2021/12/11 03:01:28;;;;;;;19.23;7.40;;;;;;;;;;5006569;28;20272;-79
2021/12/11 03:04:03;;;;;;;13.90;7.13;;;;;;;;;;5009808;28;20507;-76
2021/12/11 03:06:38;;;;;;;15.00;7.93;;;;;;;;;;5001830;28;20218;-78
2021/12/11 03:09:06;;;;;;;12.93;6.80;;;;;;;;;;5010756;28;20231;-78
2021/12/11 03:11:35;;;;;;;15.07;7.47;;;;;;;;;;5010487;28;20698;-79
2021/12/11 03:14:03;;;;;;;18.60;8.37;;;;;;;;;;5008069;28;20303;-78
2021/12/11 03:16:32;;;;;;;17.77;7.83;;;;;;;;;;5010654;28;20223;-78
2021/12/11 03:19:00;;;;;;;15.40;7.50;;;;;;;;;;5010704;28;20315;-79
2021/12/11 03:21:27;;;;;;;17.53;8.07;;;;;;;;;;5009637;28;20300;-78
2021/12/11 03:23:55;;;;;;;19.47;8.33;;;;;;;;;;5010404;28;20673;-77
2021/12/11 03:26:22;;;;;;;20.53;8.60;;;;;;;;;;5014234;28;20215;-80
2021/12/11 03:28:51;;;;;;;19.07;8.87;;;;;;;;;;5006127;28;21105;-79
2021/12/11 03:31:18;;;;;;;18.77;8.60;;;;;;;;;;5002212;28;20652;-77
2021/12/11 03:33:48;;;;;;;18.57;9.43;;;;;;;;;;5000762;28;20216;-79
2021/12/11 03:36:17;;;;;;;20.13;9.77;;;;;;;;;;5005112;28;20278;-78
2021/12/11 03:38:46;;;;;;;19.07;9.33;;;;;;;;;;5012517;28;20451;-78
2021/12/11 03:41:13;;;;;;;19.77;9.07;;;;;;;;;;5013536;28;20225;-78
2021/12/11 03:43:41;;;;;;;20.90;10.13;;;;;;;;;;5013215;28;20254;-79
2021/12/11 03:46:11;;;;;;;21.37;9.97;;;;;;;;;;5005477;28;20305;-77
2021/12/11 03:48:40;;;;;;;19.20;9.97;;;;;;;;;;4996790;28;20821;-78
2021/12/11 03:51:10;;;;;;;20.50;9.23;;;;;;;;;;5001815;28;20309;-80
2021/12/11 03:53:37;;;;;;;18.57;9.60;;;;;;;;;;5002708;28;20275;-79
2021/12/11 03:56:08;;;;;;;21.70;11.10;;;;;;;;;;5008505;28;20207;-77
2021/12/11 03:58:35;;;;;;;21.90;10.00;;;;;;;;;;5012092;28;20274;-77
2021/12/11 04:01:06;;;;;;;21.83;10.87;;;;;;;;;;5011392;28;20227;-78
2021/12/11 04:03:36;;;;;;;23.37;11.47;;;;;;;;;;5009188;28;20258;-78
2021/12/11 04:06:06;;;;;;;29.17;12.67;;;;;;;;;;5010828;28;20204;-78
2021/12/11 04:08:40;;;;;;;25.90;13.43;;;;;;;;;;5021962;28;20228;-77
2021/12/11 04:11:09;;;;;;;30.90;12.57;;;;;;;;;;5019815;28;20491;-79
2021/12/11 04:13:36;;;;;;;27.83;13.30;;;;;;;;;;5008479;28;20299;-78
2021/12/11 04:16:03;;;;;;;33.40;13.87;;;;;;;;;;5009466;28;20665;-79
2021/12/11 04:18:30;;;;;;;30.67;14.63;;;;;;;;;;5010078;28;20769;-79
2021/12/11 04:20:59;;;;;;;29.63;14.03;;;;;;;;;;5013567;28;20659;-79
2021/12/11 04:23:26;;;;;;;31.43;14.33;;;;;;;;;;5015149;28;20201;-79
2021/12/11 04:25:55;;;;;;;34.40;14.13;;;;;;;;;;5011298;28;20302;-79
2021/12/11 04:28:23;;;;;;;39.10;15.97;;;;;;;;;;5009973;28;20255;-78
2021/12/11 04:30:53;;;;;;;34.97;15.70;;;;;;;;;;5011018;28;20295;-77
2021/12/11 04:33:20;;;;;;;36.20;14.63;;;;;;;;;;5011824;28;20882;-77
2021/12/11 04:35:48;;;;;;;38.40;16.23;;;;;;;;;;5006801;28;20778;-77
2021/12/11 04:38:17;;;;;;;31.30;15.60;;;;;;;;;;5007660;28;20887;-77
2021/12/11 04:40:49;;;;;;;43.00;16.47;;;;;;;;;;5009409;28;20302;-78
2021/12/11 04:43:20;;;;;;;36.67;15.87;;;;;;;;;;5009560;28;20197;-78
2021/12/11 04:45:49;;;;;;;31.87;13.87;;;;;;;;;;5008238;28;20249;-78
2021/12/11 04:48:24;;;;;;;35.77;16.17;;;;;;;;;;5008303;28;20229;-78
2021/12/11 04:50:58;;;;;;;37.53;15.80;;;;;;;;;;5012949;28;20208;-78
2021/12/11 04:53:41;;;;;;;40.33;16.97;;;;;;;;;;5009218;28;20208;-78
2021/12/11 04:56:35;;;;;;;43.53;16.70;;;;;;;;;;5010147;28;20661;-78
2021/12/11 04:59:21;;;;;;;44.87;19.10;;;;;;;;;;5009316;28;20285;-77
2021/12/11 05:01:59;;;;;;;43.30;17.90;;;;;;;;;;5010969;28;20286;-78
2021/12/11 05:04:48;;;;;;;44.90;19.23;;;;;;;;;;5007816;28;20342;-78
2021/12/11 05:07:26;;;;;;;46.27;17.70;;;;;;;;;;5008663;28;20204;-78
2021/12/11 05:09:59;;;;;;;41.37;16.90;;;;;;;;;;5009593;28;20227;-77
2021/12/11 05:12:34;;;;;;;47.00;18.77;;;;;;;;;;5005645;28;20216;-78
2021/12/11 05:15:02;;;;;;;48.40;17.97;;;;;;;;;;5003217;28;20390;-78
2021/12/11 05:17:29;;;;;;;49.07;19.43;;;;;;;;;;5001710;28;20224;-79
2021/12/11 05:19:56;;;;;;;45.53;18.73;;;;;;;;;;5005912;28;20335;-78
2021/12/11 05:22:24;;;;;;;48.37;18.87;;;;;;;;;;5003502;28;20210;-79
2021/12/11 05:24:52;;;;;;;46.50;19.20;;;;;;;;;;5004697;28;20228;-78
2021/12/11 05:27:21;;;;;;;47.03;19.10;;;;;;;;;;5000096;28;20236;-79
2021/12/11 05:29:49;;;;;;;47.80;19.80;;;;;;;;;;5002330;28;20239;-78
2021/12/11 05:32:19;;;;;;;41.87;17.60;;;;;;;;;;5002310;28;20746;-79
2021/12/11 05:34:47;;;;;;;53.20;21.60;;;;;;;;;;4999577;28;20319;-79
2021/12/11 05:37:14;;;;;;;49.93;21.17;;;;;;;;;;5000785;28;20342;-79
2021/12/11 05:39:42;;;;;;;48.23;17.03;;;;;;;;;;5003586;28;21125;-78
2021/12/11 05:42:09;;;;;;;53.03;21.13;;;;;;;;;;4999792;28;20251;-79
2021/12/11 05:44:38;;;;;;;55.77;21.87;;;;;;;;;;5006857;28;20311;-79
2021/12/11 05:47:05;;;;;;;51.67;19.63;;;;;;;;;;5010104;28;20212;-79
2021/12/11 05:49:33;;;;;;;53.57;20.43;;;;;;;;;;5006078;28;20220;-79
2021/12/11 05:52:01;;;;;;;57.97;21.73;;;;;;;;;;5003519;28;20205;-79
2021/12/11 05:54:29;;;;;;;50.93;21.53;;;;;;;;;;5008721;28;20212;-79
2021/12/11 05:57:01;;;;;;;49.67;20.70;;;;;;;;;;5010760;28;20212;-78
2021/12/11 05:59:29;;;;;;;48.07;19.10;;;;;;;;;;5008926;28;21865;-77
2021/12/11 06:01:59;;;;;;;55.97;20.70;;;;;;;;;;5009428;28;20250;-79
2021/12/11 06:04:28;;;;;;;55.87;19.77;;;;;;;;;;5009265;28;20322;-79
2021/12/11 06:06:56;;;;;;;57.93;20.60;;;;;;;;;;5011549;28;20259;-78
2021/12/11 06:09:25;;;;;;;47.47;19.20;;;;;;;;;;5006664;28;20224;-78
2021/12/11 06:11:54;;;;;;;53.83;21.13;;;;;;;;;;5005645;28;20291;-79
2021/12/11 06:14:22;;;;;;;47.53;18.70;;;;;;;;;;5008477;28;20287;-79
2021/12/11 06:16:50;;;;;;;57.63;20.93;;;;;;;;;;5008707;28;20224;-77
2021/12/11 06:19:21;;;;;;;47.73;18.73;;;;;;;;;;5009894;28;20671;-78
2021/12/11 06:21:48;;;;;;;49.60;19.00;;;;;;;;;;5009312;28;20204;-79
2021/12/11 06:24:16;;;;;;;46.13;19.07;;;;;;;;;;5011697;28;20213;-78
2021/12/11 06:26:43;;;;;;;45.47;19.00;;;;;;;;;;5015065;28;20204;-80
2021/12/11 06:29:11;;;;;;;48.40;18.77;;;;;;;;;;5015687;28;20225;-80
2021/12/11 06:31:38;;;;;;;54.80;20.17;;;;;;;;;;5006304;28;20293;-78
2021/12/11 06:34:06;;;;;;;50.47;20.43;;;;;;;;;;5010254;28;20292;-79
2021/12/11 06:36:34;;;;;;;52.63;19.93;;;;;;;;;;5011514;28;20749;-80
2021/12/11 06:39:05;;;;;;;48.23;18.50;;;;;;;;;;5011415;28;20740;-79
2021/12/11 06:41:34;;;;;;;51.30;19.33;;;;;;;;;;5011103;28;20232;-80
2021/12/11 06:44:01;;;;;;;53.20;20.27;;;;;;;;;;5013337;28;20287;-80
2021/12/11 06:46:30;;;;;;;53.83;20.33;;;;;;;;;;5013207;28;20638;-78
2021/12/11 06:48:57;;;;;;;61.00;20.37;;;;;;;;;;5007818;28;20276;-80
2021/12/11 06:51:25;;;;;;;57.23;19.60;;;;;;;;;;5008757;28;20728;-78
2021/12/11 06:53:55;;;;;;;54.27;18.73;;;;;;;;;;5008068;28;20283;-79
2021/12/11 06:56:23;;;;;;;55.30;19.37;;;;;;;;;;5012377;28;20287;-80
2021/12/11 06:58:51;;;;;;;49.40;17.53;;;;;;;;;;5008962;28;20684;-79
2021/12/11 07:01:22;;;;;;;48.77;19.20;;;;;;;;;;5013010;28;20204;-81
2021/12/11 07:03:49;;;;;;;47.33;17.70;;;;;;;;;;5010562;28;20672;-79
2021/12/11 07:06:16;;;;;;;42.00;16.03;;;;;;;;;;5010106;28;20243;-81
2021/12/11 07:08:44;;;;;;;50.63;17.03;;;;;;;;;;5014309;28;20663;-81
2021/12/11 07:11:13;;;;;;;44.57;16.60;;;;;;;;;;5017003;28;20731;-81
2021/12/11 07:13:41;;;;;;;48.13;17.27;;;;;;;;;;5012744;28;20204;-80
2021/12/11 07:16:08;;;;;;;37.90;14.33;;;;;;;;;;5015329;28;20208;-78
2021/12/11 07:18:36;;;;;;;50.43;16.47;;;;;;;;;;5015277;28;20792;-78
2021/12/11 07:21:04;;;;;;;43.03;16.23;;;;;;;;;;5013701;28;20307;-80
2021/12/11 07:23:31;;;;;;;46.53;15.30;;;;;;;;;;5016518;28;20208;-77
2021/12/11 07:26:00;;;;;;;53.20;17.73;;;;;;;;;;5011750;28;20267;-79
2021/12/11 07:28:29;;;;;;;40.37;16.10;;;;;;;;;;5016104;28;20266;-80
2021/12/11 07:30:58;;;;;;;51.90;16.60;;;;;;;;;;5011262;28;20208;-80
2021/12/11 07:33:25;;;;;;;44.53;15.93;;;;;;;;;;5014310;28;20709;-79
2021/12/11 07:35:53;;;;;;;45.40;15.87;;;;;;;;;;5012428;28;20636;-79
2021/12/11 07:38:21;;;;;;;44.47;15.80;;;;;;;;;;5012058;28;20310;-80
2021/12/11 07:40:50;;;;;;;44.37;15.00;;;;;;;;;;5011900;28;20328;-75
2021/12/11 07:43:18;;;;;;;43.20;16.47;;;;;;;;;;5013904;28;20757;-77
2021/12/11 07:45:47;;;;;;;52.27;16.40;;;;;;;;;;5013934;28;20307;-76
2021/12/11 07:48:15;;;;;;;50.43;16.63;;;;;;;;;;5012602;28;20256;-78
2021/12/11 07:50:43;;;;;;;46.90;16.30;;;;;;;;;;5012946;28;20292;-76
2021/12/11 07:53:10;;;;;;;45.30;16.20;;;;;;;;;;5013040;28;20291;-77
2021/12/11 07:55:38;;;;;;;43.90;17.73;;;;;;;;;;5011336;28;20204;-78
2021/12/11 07:58:06;;;;;;;50.67;16.80;;;;;;;;;;5009585;28;20236;-75
2021/12/11 08:00:34;;;;;;;55.30;17.43;;;;;;;;;;5010214;28;20211;-77
2021/12/11 08:03:03;;;;;;;48.03;16.13;;;;;;;;;;5009595;28;20204;-76
2021/12/11 08:05:31;;;;;;;46.87;15.50;;;;;;;;;;5010152;28;20598;-77
2021/12/11 08:08:01;;;;;;;53.57;16.53;;;;;;;;;;5010566;28;20291;-79
2021/12/11 08:10:30;;;;;;;48.03;16.17;;;;;;;;;;5009335;28;20227;-79
2021/12/11 08:12:57;;;;;;;43.40;16.10;;;;;;;;;;5010180;28;20239;-79
2021/12/11 08:15:25;;;;;;;52.93;17.47;;;;;;;;;;5011423;28;20209;-78
2021/12/11 08:17:54;;;;;;;34.30;13.27;;;;;;;;;;5013766;28;20224;-78
2021/12/11 08:20:24;;;;;;;49.83;17.70;;;;;;;;;;5011035;28;20206;-78
2021/12/11 08:22:51;;;;;;;53.67;17.87;;;;;;;;;;5012016;28;20271;-79
2021/12/11 08:25:19;;;;;;;48.57;16.30;;;;;;;;;;5012995;28;20307;-79
2021/12/11 08:27:46;;;;;;;51.53;18.57;;;;;;;;;;5012336;28;20208;-77
2021/12/11 08:30:14;;;;;;;55.13;16.90;;;;;;;;;;5009801;28;21129;-77
2021/12/11 08:32:42;;;;;;;51.20;15.87;;;;;;;;;;5011322;28;20295;-79
2021/12/11 08:35:10;;;;;;;49.77;16.43;;;;;;;;;;5008669;28;20287;-78
2021/12/11 08:37:39;;;;;;;51.73;16.43;;;;;;;;;;5015724;28;20260;-75
2021/12/11 08:40:07;;;;;;;48.50;16.63;;;;;;;;;;5028243;28;20228;-77
2021/12/11 08:42:35;;;;;;;47.37;15.00;;;;;;;;;;5013718;28;20291;-78
2021/12/11 08:45:06;;;;;;;46.80;15.57;;;;;;;;;;5013740;28;20710;-77
2021/12/11 08:47:34;;;;;;;44.17;15.30;;;;;;;;;;5011102;28;20209;-78
2021/12/11 08:50:01;;;;;;;42.27;14.80;;;;;;;;;;5003675;28;20252;-80
2021/12/11 08:52:30;;;;;;;47.30;15.90;;;;;;;;;;5010378;28;20295;-77
2021/12/11 08:54:59;;;;;;;43.30;15.13;;;;;;;;;;5008964;28;20759;-79
2021/12/11 08:57:28;;;;;;;49.43;15.67;;;;;;;;;;5013581;28;20254;-78
2021/12/11 08:59:57;;;;;;;42.10;14.80;;;;;;;;;;5007744;28;20319;-79
2021/12/11 09:02:25;;;;;;;38.90;13.00;;;;;;;;;;5011973;28;20291;-79
2021/12/11 09:04:56;;;;;;;42.77;14.20;;;;;;;;;;5010965;28;20208;-77
2021/12/11 09:07:26;;;;;;;52.40;15.17;;;;;;;;;;5011160;28;20253;-78
2021/12/11 09:09:55;;;;;;;43.60;14.60;;;;;;;;;;5005247;28;20260;-78
2021/12/11 09:12:25;;;;;;;44.50;14.33;;;;;;;;;;5015583;28;20218;-79
2021/12/11 09:14:55;;;;;;;48.17;13.40;;;;;;;;;;5007145;28;20231;-77
2021/12/11 09:17:24;;;;;;;47.53;14.43;;;;;;;;;;5010103;28;20204;-77
2021/12/11 09:19:53;;;;;;;40.40;14.00;;;;;;;;;;5004960;28;20708;-77
2021/12/11 09:22:22;;;;;;;47.67;14.63;;;;;;;;;;5003440;28;20201;-78
2021/12/11 09:24:54;;;;;;;44.87;14.30;;;;;;;;;;4999287;28;20254;-78
2021/12/11 09:27:24;;;;;;;42.40;14.13;;;;;;;;;;5000463;28;20247;-77
2021/12/11 09:29:53;;;;;;;46.43;14.73;;;;;;;;;;4996868;28;20255;-78
2021/12/11 09:32:23;;;;;;;44.60;14.50;;;;;;;;;;5015959;28;20235;-77
2021/12/11 09:34:51;;;;;;;34.17;12.20;;;;;;;;;;4995580;28;20288;-79
2021/12/11 09:37:20;;;;;;;49.07;14.80;;;;;;;;;;4999985;28;20213;-78
2021/12/11 09:39:50;;;;;;;46.63;15.20;;;;;;;;;;4998572;28;20231;-78
2021/12/11 09:42:17;;;;;;;45.73;14.50;;;;;;;;;;4999445;28;20296;-79
2021/12/11 09:44:47;;;;;;;47.27;15.67;;;;;;;;;;5001846;28;20355;-76
2021/12/11 09:47:17;;;;;;;49.17;14.77;;;;;;;;;;5010505;28;20230;-77
2021/12/11 09:49:46;;;;;;;48.00;15.83;;;;;;;;;;5011800;28;20247;-79
2021/12/11 09:52:23;;;;;;;51.10;15.60;;;;;;;;;;4999364;28;20299;-79
2021/12/11 09:54:52;;;;;;;49.60;15.67;;;;;;;;;;4995675;28;20208;-75
2021/12/11 09:57:21;;;;;;;50.20;15.70;;;;;;;;;;4996984;28;20694;-80
2021/12/11 09:59:51;;;;;;;50.70;16.30;;;;;;;;;;4997453;28;20315;-77
2021/12/11 10:02:21;;;;;;;45.57;15.47;;;;;;;;;;4994070;28;20282;-77
2021/12/11 10:04:56;;;;;;;44.03;15.33;;;;;;;;;;4992053;28;20212;-80
2021/12/11 10:07:30;;;;;;;49.40;15.73;;;;;;;;;;4997665;28;20223;-78
2021/12/11 10:09:59;;;;;;;49.40;16.27;;;;;;;;;;5002786;28;20310;-78
2021/12/11 10:12:28;;;;;;;41.43;15.03;;;;;;;;;;5010901;28;20298;-78
2021/12/11 10:14:57;;;;;;;47.47;14.87;;;;;;;;;;5004839;28;20287;-77
2021/12/11 10:17:27;;;;;;;43.77;14.33;;;;;;;;;;5008129;28;20299;-79
2021/12/11 10:19:56;;;;;;;46.90;16.17;;;;;;;;;;5008442;28;20590;-79
2021/12/11 10:22:25;;;;;;;37.53;13.50;;;;;;;;;;5011098;28;20247;-78
2021/12/11 10:24:53;;;;;;;40.17;14.57;;;;;;;;;;5014125;28;20283;-78
2021/12/11 10:27:22;;;;;;;30.50;11.73;;;;;;;;;;5016021;28;20656;-78
2021/12/11 10:29:50;;;;;;;43.73;14.30;;;;;;;;;;5009948;28;20256;-78
2021/12/11 10:32:22;;;;;;;48.30;15.27;;;;;;;;;;5010762;28;20212;-78
2021/12/11 10:34:52;;;;;;;46.13;14.37;;;;;;;;;;5011565;28;20204;-77
2021/12/11 10:37:20;;;;;;;37.67;14.57;;;;;;;;;;5009871;28;20226;-77
2021/12/11 10:39:49;;;;;;;43.47;13.80;;;;;;;;;;5014279;28;20227;-79
2021/12/11 10:42:17;;;;;;;40.97;14.63;;;;;;;;;;5017382;28;20215;-77
2021/12/11 10:44:47;;;;;;;41.27;15.23;;;;;;;;;;5017746;28;21089;-78
2021/12/11 10:47:19;;;;;;;38.83;14.97;;;;;;;;;;5015070;28;20689;-78
2021/12/11 10:49:49;;;;;;;44.70;17.10;;;;;;;;;;5030562;28;20220;-80
2021/12/11 10:52:17;;;;;;;42.07;15.43;;;;;;;;;;5015354;28;20538;-80
2021/12/11 10:54:45;;;;;;;44.10;15.33;;;;;;;;;;5019772;28;20586;-79
2021/12/11 10:57:12;;;;;;;42.23;14.53;;;;;;;;;;5011850;28;20232;-78
2021/12/11 10:59:41;;;;;;;38.93;13.40;;;;;;;;;;5012853;28;20307;-77
2021/12/11 11:02:10;;;;;;;41.07;14.97;;;;;;;;;;5011794;28;20628;-78
2021/12/11 11:04:40;;;;;;;35.27;13.47;;;;;;;;;;5012281;28;20497;-78
2021/12/11 11:07:10;;;;;;;39.67;15.37;;;;;;;;;;5020162;28;20310;-79
2021/12/11 11:09:37;;;;;;;39.33;13.47;;;;;;;;;;5014768;28;20232;-80
2021/12/11 11:12:06;;;;;;;36.80;14.57;;;;;;;;;;5011177;28;20274;-79
2021/12/11 11:14:34;;;;;;;37.83;13.67;;;;;;;;;;5007460;28;20203;-78
2021/12/11 11:17:04;;;;;;;40.03;14.50;;;;;;;;;;5010728;28;20262;-79
2021/12/11 11:19:34;;;;;;;39.53;13.77;;;;;;;;;;5010465;28;20251;-79
2021/12/11 11:22:02;;;;;;;34.13;13.30;;;;;;;;;;5006965;28;20232;-79
2021/12/11 11:24:34;;;;;;;37.37;14.40;;;;;;;;;;5001608;28;20291;-79
2021/12/11 11:27:03;;;;;;;36.90;12.73;;;;;;;;;;5005139;28;20277;-78
2021/12/11 11:29:30;;;;;;;32.50;12.20;;;;;;;;;;5003838;28;20228;-79
2021/12/11 11:31:59;;;;;;;32.73;11.50;;;;;;;;;;5005448;22;20230;-76
2021/12/11 11:34:28;;;;;;;32.10;11.80;;;;;;;;;;5008225;28;20669;-79
2021/12/11 11:36:56;;;;;;;33.53;11.40;;;;;;;;;;5011038;28;20682;-79
2021/12/11 11:39:24;;;;;;;32.40;13.37;;;;;;;;;;5017908;28;20227;-78
2021/12/11 11:41:57;;;;;;;40.87;14.23;;;;;;;;;;5019046;28;20208;-80
2021/12/11 11:44:26;;;;;;;33.27;12.43;;;;;;;;;;5022556;28;20294;-78
2021/12/11 11:46:56;;;;;;;34.10;12.60;;;;;;;;;;5017553;28;20257;-78
2021/12/11 11:49:23;;;;;;;29.23;11.90;;;;;;;;;;5011918;28;20230;-80
2021/12/11 11:51:52;;;;;;;30.47;12.17;;;;;;;;;;5021560;28;20215;-76
2021/12/11 11:54:21;;;;;;;39.70;14.43;;;;;;;;;;5030639;28;21320;-78
2021/12/11 11:56:50;;;;;;;34.47;14.20;;;;;;;;;;5011656;28;20199;-76
2021/12/11 11:59:19;;;;;;;38.10;12.60;;;;;;;;;;5007272;28;20304;-79
2021/12/11 12:01:49;;;;;;;38.13;13.53;;;;;;;;;;5019854;28;20224;-78
2021/12/11 12:04:20;;;;;;;38.17;14.43;;;;;;;;;;5024605;28;20687;-77
2021/12/11 12:06:54;;;;;;;33.93;13.57;;;;;;;;;;5035510;28;20235;-78
2021/12/11 12:09:22;;;;;;;34.40;13.70;;;;;;;;;;5022770;28;20251;-77
2021/12/11 12:11:49;;;;;;;40.83;13.87;;;;;;;;;;5017077;28;20249;-79
2021/12/11 12:14:19;;;;;;;37.20;13.73;;;;;;;;;;5020139;28;20228;-80
2021/12/11 12:16:48;;;;;;;35.20;13.73;;;;;;;;;;5016307;28;20832;-80
2021/12/11 12:19:16;;;;;;;41.43;14.40;;;;;;;;;;5016233;28;20314;-79
2021/12/11 12:21:44;;;;;;;39.33;14.33;;;;;;;;;;5014209;28;20677;-80
2021/12/11 12:24:12;;;;;;;42.73;14.50;;;;;;;;;;5019645;28;20262;-79
2021/12/11 12:26:39;;;;;;;43.77;13.83;;;;;;;;;;5023429;28;20216;-79
2021/12/11 12:29:08;;;;;;;37.70;13.77;;;;;;;;;;5022260;28;20745;-77
2021/12/11 12:31:39;;;;;;;41.47;14.70;;;;;;;;;;5020205;28;20223;-79
2021/12/11 12:34:08;;;;;;;30.17;12.13;;;;;;;;;;5024614;28;20225;-79
2021/12/11 12:36:36;;;;;;;46.03;14.50;;;;;;;;;;5024445;28;20231;-79
2021/12/11 12:39:04;;;;;;;39.70;13.83;;;;;;;;;;5023180;28;20578;-77
2021/12/11 12:41:32;;;;;;;39.90;14.10;;;;;;;;;;5023289;28;20675;-79
2021/12/11 12:44:17;;;;;;;38.70;14.53;;;;;;;;;;5026980;28;20208;-79
2021/12/11 12:46:47;;;;;;;39.40;14.43;;;;;;;;;;5021572;28;20224;-78
2021/12/11 12:49:16;;;;;;;39.23;14.97;;;;;;;;;;5021461;28;20296;-79
2021/12/11 12:51:44;;;;;;;38.33;13.30;;;;;;;;;;5027060;28;20236;-79
2021/12/11 12:54:13;;;;;;;39.77;14.17;;;;;;;;;;5025040;28;20204;-77
2021/12/11 12:56:43;;;;;;;42.00;14.07;;;;;;;;;;5022758;28;20254;-77
2021/12/11 12:59:12;;;;;;;41.23;15.60;;;;;;;;;;5024245;28;20223;-77
2021/12/11 13:01:41;;;;;;;40.30;13.70;;;;;;;;;;5025562;28;20668;-79
2021/12/11 13:04:09;;;;;;;42.60;15.00;;;;;;;;;;5027671;28;20294;-79
2021/12/11 13:06:40;;;;;;;40.60;15.43;;;;;;;;;;5026828;28;20200;-79
2021/12/11 13:09:11;;;;;;;42.53;14.80;;;;;;;;;;5025385;28;20330;-79
2021/12/11 13:11:40;;;;;;;41.03;15.27;;;;;;;;;;5022133;28;20579;-82
2021/12/11 13:14:07;;;;;;;42.30;15.73;;;;;;;;;;5026820;28;20658;-79
2021/12/11 13:16:35;;;;;;;47.60;17.63;;;;;;;;;;5026215;28;20255;-77
2021/12/11 13:19:09;;;;;;;48.03;16.83;;;;;;;;;;5025955;28;20224;-77
2021/12/11 13:21:40;;;;;;;43.37;16.03;;;;;;;;;;5026800;28;20238;-80
2021/12/11 13:24:09;;;;;;;51.07;17.03;;;;;;;;;;5025666;28;20238;-79
2021/12/11 13:26:37;;;;;;;48.37;16.37;;;;;;;;;;5028183;28;20250;-80
2021/12/11 13:29:10;;;;;;;54.17;18.73;;;;;;;;;;5025649;28;20664;-79
2021/12/11 13:31:40;;;;;;;47.53;17.57;;;;;;;;;;5027210;28;20510;-79
2021/12/11 13:34:08;;;;;;;48.20;18.63;;;;;;;;;;5030605;28;20236;-78
2021/12/11 13:36:35;;;;;;;54.00;19.33;;;;;;;;;;5027484;28;20199;-78
2021/12/11 13:39:12;;;;;;;53.40;19.07;;;;;;;;;;5022657;28;20278;-78
2021/12/11 13:41:42;;;;;;;53.37;19.23;;;;;;;;;;5027959;28;20940;-79
2021/12/11 13:44:10;;;;;;;47.80;19.10;;;;;;;;;;5026132;28;20286;-77
2021/12/11 13:46:37;;;;;;;53.43;19.47;;;;;;;;;;5025029;28;20203;-79
2021/12/11 13:49:05;;;;;;;68.97;19.60;;;;;;;;;;5026632;28;20259;-79
2021/12/11 13:51:33;;;;;;;56.30;18.20;;;;;;;;;;5024764;28;20262;-78
2021/12/11 13:54:00;;;;;;;58.87;19.40;;;;;;;;;;5029579;28;20208;-80
2021/12/11 13:56:32;;;;;;;55.93;20.03;;;;;;;;;;5024823;28;20243;-80
2021/12/11 13:58:59;;;;;;;59.70;19.63;;;;;;;;;;5022509;28;20251;-81
2021/12/11 14:01:28;;;;;;;56.20;18.37;;;;;;;;;;5022257;28;20693;-80
2021/12/11 14:03:56;;;;;;;56.77;19.13;;;;;;;;;;5027111;28;20203;-80
2021/12/11 14:06:27;;;;;;;53.93;19.43;;;;;;;;;;5024436;28;20224;-78
2021/12/11 14:08:59;;;;;;;57.10;18.53;;;;;;;;;;5026322;28;20235;-77
2021/12/11 14:11:27;;;;;;;49.90;18.60;;;;;;;;;;5026875;28;20211;-78
2021/12/11 14:13:56;;;;;;;48.90;19.03;;;;;;;;;;5031970;28;20617;-80
2021/12/11 14:16:23;;;;;;;55.77;17.77;;;;;;;;;;5025312;28;20219;-80
2021/12/11 14:18:51;;;;;;;55.10;17.33;;;;;;;;;;5028513;28;20235;-79
2021/12/11 14:21:19;;;;;;;57.23;18.93;;;;;;;;;;5026403;28;20326;-80
2021/12/11 14:23:50;;;;;;;61.00;19.10;;;;;;;;;;5026165;28;20330;-79
2021/12/11 14:26:22;;;;;;;63.37;18.63;;;;;;;;;;5027255;28;20208;-79
2021/12/11 14:28:49;;;;;;;57.33;19.27;;;;;;;;;;5021837;28;20281;-79
2021/12/11 14:31:19;;;;;;;54.00;19.07;;;;;;;;;;5028227;28;20198;-79
2021/12/11 14:33:47;;;;;;;53.73;19.03;;;;;;;;;;5026132;28;20258;-78